sensor_id;sensor_type;location;lat;lon;timestamp;pressure;altitude;pressure_sealevel;temperature;humidity
51229;BME280;37304;52.216;6.874;2022-11-22T00:04:41;99045.88;;;3.11;100.00
51229;BME280;37304;52.216;6.874;2022-11-22T00:09:42;99032.16;;;3.13;100.00
51229;BME280;37304;52.216;6.874;2022-11-22T00:14:42;99022.84;;;3.08;100.00
51229;BME280;37304;52.216;6.874;2022-11-22T00:19:42;99007.38;;;3.12;100.00
51229;BME280;37304;52.216;6.874;2022-11-22T00:24:43;99002.25;;;3.12;100.00
51229;BME280;37304;52.216;6.874;2022-11-22T00:29:45;98989.41;;;3.12;100.00
51229;BME280;37304;52.216;6.874;2022-11-22T00:34:45;98985.16;;;3.11;100.00
51229;BME280;37304;52.216;6.874;2022-11-22T00:39:45;98982.53;;;3.13;100.00
51229;BME280;37304;52.216;6.874;2022-11-22T00:44:46;98980.06;;;3.08;100.00
51229;BME280;37304;52.216;6.874;2022-11-22T00:49:46;98986.78;;;3.15;100.00
51229;BME280;37304;52.216;6.874;2022-11-22T00:54:47;98989.31;;;3.18;100.00
51229;BME280;37304;52.216;6.874;2022-11-22T00:59:47;98990.91;;;3.24;100.00
51229;BME280;37304;52.216;6.874;2022-11-22T01:04:47;98996.13;;;3.19;100.00
51229;BME280;37304;52.216;6.874;2022-11-22T01:09:48;98978.00;;;3.27;100.00
51229;BME280;37304;52.216;6.874;2022-11-22T01:14:48;98974.63;;;3.27;100.00
51229;BME280;37304;52.216;6.874;2022-11-22T01:19:48;98983.03;;;3.35;100.00
51229;BME280;37304;52.216;6.874;2022-11-22T01:24:49;98986.41;;;3.37;100.00
51229;BME280;37304;52.216;6.874;2022-11-22T01:29:49;98986.34;;;3.42;100.00
51229;BME280;37304;52.216;6.874;2022-11-22T01:34:49;98973.47;;;3.45;100.00
51229;BME280;37304;52.216;6.874;2022-11-22T01:39:50;98973.34;;;3.49;100.00
51229;BME280;37304;52.216;6.874;2022-11-22T01:44:52;98974.06;;;3.58;100.00
51229;BME280;37304;52.216;6.874;2022-11-22T01:50:01;98973.19;;;3.60;100.00
51229;BME280;37304;52.216;6.874;2022-11-22T01:55:08;98965.41;;;3.65;100.00
51229;BME280;37304;52.216;6.874;2022-11-22T02:00:13;98973.03;;;3.68;100.00
51229;BME280;37304;52.216;6.874;2022-11-22T02:05:18;98957.50;;;3.74;100.00
51229;BME280;37304;52.216;6.874;2022-11-22T02:10:22;98958.25;;;3.79;100.00
51229;BME280;37304;52.216;6.874;2022-11-22T02:15:24;98961.59;;;3.85;100.00
51229;BME280;37304;52.216;6.874;2022-11-22T02:20:25;98972.56;;;3.91;100.00
51229;BME280;37304;52.216;6.874;2022-11-22T02:25:33;98963.03;;;3.98;100.00
51229;BME280;37304;52.216;6.874;2022-11-22T02:30:36;98958.66;;;4.03;100.00
51229;BME280;37304;52.216;6.874;2022-11-22T02:35:36;98956.88;;;4.05;100.00
51229;BME280;37304;52.216;6.874;2022-11-22T02:40:41;98947.34;;;4.12;100.00
51229;BME280;37304;52.216;6.874;2022-11-22T02:45:43;98955.75;;;4.19;100.00
51229;BME280;37304;52.216;6.874;2022-11-22T02:50:44;98968.53;;;4.23;100.00
51229;BME280;37304;52.216;6.874;2022-11-22T02:55:45;98973.56;;;4.28;100.00
51229;BME280;37304;52.216;6.874;2022-11-22T03:00:45;98993.25;;;4.29;100.00
51229;BME280;37304;52.216;6.874;2022-11-22T03:05:45;99006.00;;;4.35;100.00
51229;BME280;37304;52.216;6.874;2022-11-22T03:10:45;99011.91;;;4.41;100.00
51229;BME280;37304;52.216;6.874;2022-11-22T03:15:46;99022.06;;;4.45;100.00
51229;BME280;37304;52.216;6.874;2022-11-22T03:20:46;99013.41;;;4.51;100.00
51229;BME280;37304;52.216;6.874;2022-11-22T03:25:47;99019.38;;;4.51;100.00
51229;BME280;37304;52.216;6.874;2022-11-22T03:30:47;99024.34;;;4.59;100.00
51229;BME280;37304;52.216;6.874;2022-11-22T03:35:47;99030.25;;;4.64;100.00
51229;BME280;37304;52.216;6.874;2022-11-22T03:40:47;99014.75;;;4.68;100.00
51229;BME280;37304;52.216;6.874;2022-11-22T03:45:48;99014.66;;;4.72;100.00
51229;BME280;37304;52.216;6.874;2022-11-22T03:50:48;99036.13;;;4.71;100.00
51229;BME280;37304;52.216;6.874;2022-11-22T03:55:49;99037.69;;;4.78;100.00
51229;BME280;37304;52.216;6.874;2022-11-22T04:00:49;99036.75;;;4.81;100.00
51229;BME280;37304;52.216;6.874;2022-11-22T04:05:49;99031.59;;;4.81;100.00
51229;BME280;37304;52.216;6.874;2022-11-22T04:10:50;99040.19;;;4.81;100.00
51229;BME280;37304;52.216;6.874;2022-11-22T04:15:51;99044.44;;;4.83;100.00
51229;BME280;37304;52.216;6.874;2022-11-22T04:20:51;99043.66;;;4.79;100.00
51229;BME280;37304;52.216;6.874;2022-11-22T04:26:10;99046.31;;;4.76;100.00
51229;BME280;37304;52.216;6.874;2022-11-22T04:31:10;99053.22;;;4.74;100.00
51229;BME280;37304;52.216;6.874;2022-11-22T04:36:29;99068.59;;;4.77;100.00
51229;BME280;37304;52.216;6.874;2022-11-22T04:41:29;99074.41;;;4.85;100.00
51229;BME280;37304;52.216;6.874;2022-11-22T04:46:29;99074.28;;;4.91;100.00
51229;BME280;37304;52.216;6.874;2022-11-22T04:51:30;99069.03;;;4.96;100.00
51229;BME280;37304;52.216;6.874;2022-11-22T04:56:49;99072.50;;;4.93;100.00
51229;BME280;37304;52.216;6.874;2022-11-22T05:01:51;99061.44;;;4.90;100.00
51229;BME280;37304;52.216;6.874;2022-11-22T05:06:51;99061.53;;;4.87;100.00
51229;BME280;37304;52.216;6.874;2022-11-22T05:11:52;99078.53;;;4.92;100.00
51229;BME280;37304;52.216;6.874;2022-11-22T05:16:52;99080.28;;;4.92;100.00
51229;BME280;37304;52.216;6.874;2022-11-22T05:21:53;99080.16;;;4.96;100.00
51229;BME280;37304;52.216;6.874;2022-11-22T05:26:53;99086.97;;;5.01;100.00
51229;BME280;37304;52.216;6.874;2022-11-22T05:31:53;99081.81;;;5.01;100.00
51229;BME280;37304;52.216;6.874;2022-11-22T05:36:54;99078.44;;;4.99;100.00
51229;BME280;37304;52.216;6.874;2022-11-22T05:41:54;99092.22;;;4.94;100.00
51229;BME280;37304;52.216;6.874;2022-11-22T05:46:55;99093.31;;;4.84;100.00
51229;BME280;37304;52.216;6.874;2022-11-22T05:51:55;99078.13;;;4.73;100.00
51229;BME280;37304;52.216;6.874;2022-11-22T05:56:55;99080.75;;;4.70;100.00
51229;BME280;37304;52.216;6.874;2022-11-22T06:01:56;99082.59;;;4.63;100.00
51229;BME280;37304;52.216;6.874;2022-11-22T06:06:56;99081.97;;;4.52;100.00
51229;BME280;37304;52.216;6.874;2022-11-22T06:11:56;99104.38;;;4.47;100.00
51229;BME280;37304;52.216;6.874;2022-11-22T06:16:57;99108.78;;;4.40;100.00
51229;BME280;37304;52.216;6.874;2022-11-22T06:21:57;99112.22;;;4.39;100.00
51229;BME280;37304;52.216;6.874;2022-11-22T06:26:57;99109.72;;;4.36;100.00
51229;BME280;37304;52.216;6.874;2022-11-22T06:31:58;99118.34;;;4.33;100.00
51229;BME280;37304;52.216;6.874;2022-11-22T06:36:58;99126.16;;;4.27;100.00
51229;BME280;37304;52.216;6.874;2022-11-22T06:41:58;99127.16;;;4.20;100.00
51229;BME280;37304;52.216;6.874;2022-11-22T06:46:59;99122.88;;;4.19;100.00
51229;BME280;37304;52.216;6.874;2022-11-22T06:51:59;99136.72;;;4.13;100.00
51229;BME280;37304;52.216;6.874;2022-11-22T06:56:59;99147.88;;;4.11;100.00
51229;BME280;37304;52.216;6.874;2022-11-22T07:02:00;99153.06;;;4.07;100.00
51229;BME280;37304;52.216;6.874;2022-11-22T07:07:00;99158.28;;;4.04;100.00
51229;BME280;37304;52.216;6.874;2022-11-22T07:12:00;99154.03;;;4.02;100.00
51229;BME280;37304;52.216;6.874;2022-11-22T07:17:00;99160.94;;;3.98;100.00
51229;BME280;37304;52.216;6.874;2022-11-22T07:22:01;99164.38;;;3.99;100.00
51229;BME280;37304;52.216;6.874;2022-11-22T07:27:01;99160.13;;;3.96;100.00
51229;BME280;37304;52.216;6.874;2022-11-22T07:32:01;99155.81;;;3.97;100.00
51229;BME280;37304;52.216;6.874;2022-11-22T07:37:02;99160.13;;;3.96;100.00
51229;BME280;37304;52.216;6.874;2022-11-22T07:42:02;99170.41;;;3.96;100.00
51229;BME280;37304;52.216;6.874;2022-11-22T07:47:03;99172.16;;;3.94;100.00
51229;BME280;37304;52.216;6.874;2022-11-22T07:52:03;99175.53;;;3.98;100.00
51229;BME280;37304;52.216;6.874;2022-11-22T07:57:03;99172.06;;;4.00;100.00
51229;BME280;37304;52.216;6.874;2022-11-22T08:02:04;99169.47;;;4.02;100.00
51229;BME280;37304;52.216;6.874;2022-11-22T08:07:04;99167.66;;;4.07;100.00
51229;BME280;37304;52.216;6.874;2022-11-22T08:12:04;99170.13;;;4.12;100.00
51229;BME280;37304;52.216;6.874;2022-11-22T08:17:05;99176.88;;;4.20;100.00
51229;BME280;37304;52.216;6.874;2022-11-22T08:22:05;99181.84;;;4.30;100.00
51229;BME280;37304;52.216;6.874;2022-11-22T08:27:05;99191.03;;;4.43;100.00
51229;BME280;37304;52.216;6.874;2022-11-22T08:32:06;99184.81;;;4.55;100.00
51229;BME280;37304;52.216;6.874;2022-11-22T08:37:06;99188.03;;;4.66;100.00
51229;BME280;37304;52.216;6.874;2022-11-22T08:42:06;99183.56;;;4.75;100.00
51229;BME280;37304;52.216;6.874;2022-11-22T08:47:07;99186.91;;;5.98;100.00
51229;BME280;37304;52.216;6.874;2022-11-22T08:52:07;99187.66;;;5.67;100.00
51229;BME280;37304;52.216;6.874;2022-11-22T08:57:07;99185.53;;;5.83;100.00
51229;BME280;37304;52.216;6.874;2022-11-22T09:02:08;99181.53;;;6.09;100.00
51229;BME280;37304;52.216;6.874;2022-11-22T09:07:09;99167.63;;;6.48;100.00
51229;BME280;37304;52.216;6.874;2022-11-22T09:12:09;99162.56;;;7.63;100.00
51229;BME280;37304;52.216;6.874;2022-11-22T09:17:09;99165.72;;;8.00;100.00
51229;BME280;37304;52.216;6.874;2022-11-22T09:22:10;99182.88;;;6.89;100.00
51229;BME280;37304;52.216;6.874;2022-11-22T09:27:10;99185.28;;;6.63;100.00
51229;BME280;37304;52.216;6.874;2022-11-22T09:32:10;99200.31;;;6.47;100.00
51229;BME280;37304;52.216;6.874;2022-11-22T09:37:11;99201.16;;;6.15;100.00
51229;BME280;37304;52.216;6.874;2022-11-22T09:48:16;99203.72;;;6.15;100.00
51229;BME280;37304;52.216;6.874;2022-11-22T09:58:49;99211.22;;;6.25;100.00
51229;BME280;37304;52.216;6.874;2022-11-22T10:04:52;99203.59;;;6.54;100.00
51229;BME280;37304;52.216;6.874;2022-11-22T10:14:46;99197.03;;;6.75;100.00
51229;BME280;37304;52.216;6.874;2022-11-22T10:25:13;99187.75;;;6.99;100.00
51229;BME280;37304;52.216;6.874;2022-11-22T10:30:18;99186.69;;;7.05;100.00
51229;BME280;37304;52.216;6.874;2022-11-22T10:35:29;99180.69;;;7.05;100.00
51229;BME280;37304;52.216;6.874;2022-11-22T10:46:16;99168.00;;;6.97;100.00
51229;BME280;37304;52.216;6.874;2022-11-22T10:51:29;99165.59;;;6.91;100.00
51229;BME280;37304;52.216;6.874;2022-11-22T10:56:51;99157.56;;;7.02;100.00
51229;BME280;37304;52.216;6.874;2022-11-22T11:02:02;99165.44;;;6.95;100.00
51229;BME280;37304;52.216;6.874;2022-11-22T11:07:20;99146.66;;;6.90;100.00
51229;BME280;37304;52.216;6.874;2022-11-22T11:12:40;99144.94;;;6.91;100.00
51229;BME280;37304;52.216;6.874;2022-11-22T11:17:41;99141.34;;;6.96;100.00
51229;BME280;37304;52.216;6.874;2022-11-22T11:22:43;99140.41;;;6.99;100.00
51229;BME280;37304;52.216;6.874;2022-11-22T11:27:44;99133.03;;;7.15;100.00
51229;BME280;37304;52.216;6.874;2022-11-22T11:32:54;99134.63;;;7.19;100.00
51229;BME280;37304;52.216;6.874;2022-11-22T11:37:55;99125.00;;;7.24;100.00
51229;BME280;37304;52.216;6.874;2022-11-22T11:43:18;99122.44;;;7.23;100.00
51229;BME280;37304;52.216;6.874;2022-11-22T11:48:33;99131.38;;;7.12;100.00
51229;BME280;37304;52.216;6.874;2022-11-22T11:53:34;99129.88;;;7.05;100.00
51229;BME280;37304;52.216;6.874;2022-11-22T11:58:35;99131.53;;;7.08;100.00
51229;BME280;37304;52.216;6.874;2022-11-22T12:03:35;99132.75;;;6.94;100.00
51229;BME280;37304;52.216;6.874;2022-11-22T12:08:36;99135.41;;;6.93;100.00
51229;BME280;37304;52.216;6.874;2022-11-22T12:13:42;99146.66;;;6.90;100.00
51229;BME280;37304;52.216;6.874;2022-11-22T12:18:54;99132.91;;;6.90;100.00
51229;BME280;37304;52.216;6.874;2022-11-22T12:29:21;99126.88;;;6.91;100.00
51229;BME280;37304;52.216;6.874;2022-11-22T12:34:29;99125.16;;;6.90;100.00
51229;BME280;37304;52.216;6.874;2022-11-22T12:39:34;99121.00;;;6.84;100.00
51229;BME280;37304;52.216;6.874;2022-11-22T12:44:38;99125.28;;;6.85;100.00
51229;BME280;37304;52.216;6.874;2022-11-22T12:49:51;99127.94;;;6.83;100.00
51229;BME280;37304;52.216;6.874;2022-11-22T13:00:47;99132.38;;;6.78;100.00
51229;BME280;37304;52.216;6.874;2022-11-22T13:05:55;99135.00;;;6.77;100.00
51229;BME280;37304;52.216;6.874;2022-11-22T13:11:24;99144.59;;;6.73;100.00
51229;BME280;37304;52.216;6.874;2022-11-22T13:16:25;99139.44;;;6.72;100.00
51229;BME280;37304;52.216;6.874;2022-11-22T13:27:06;99130.78;;;6.74;100.00
51229;BME280;37304;52.216;6.874;2022-11-22T13:37:14;99135.19;;;6.70;100.00
51229;BME280;37304;52.216;6.874;2022-11-22T13:42:21;99133.41;;;6.73;100.00
51229;BME280;37304;52.216;6.874;2022-11-22T13:52:48;99124.09;;;6.67;100.00
51229;BME280;37304;52.216;6.874;2022-11-22T13:57:48;99124.25;;;6.61;100.00
51229;BME280;37304;52.216;6.874;2022-11-22T14:02:53;99113.09;;;6.60;100.00
51229;BME280;37304;52.216;6.874;2022-11-22T14:07:58;99118.28;;;6.59;100.00
51229;BME280;37304;52.216;6.874;2022-11-22T14:13:20;99123.50;;;6.57;100.00
51229;BME280;37304;52.216;6.874;2022-11-22T14:18:33;99120.03;;;6.58;100.00
51229;BME280;37304;52.216;6.874;2022-11-22T14:24:00;99126.88;;;6.59;100.00
51229;BME280;37304;52.216;6.874;2022-11-22T14:34:28;99127.88;;;6.55;100.00
51229;BME280;37304;52.216;6.874;2022-11-22T14:44:48;99119.34;;;6.51;100.00
51229;BME280;37304;52.216;6.874;2022-11-22T14:49:51;99129.72;;;6.50;100.00
51229;BME280;37304;52.216;6.874;2022-11-22T14:54:55;99124.50;;;6.51;100.00
51229;BME280;37304;52.216;6.874;2022-11-22T15:00:27;99122.00;;;6.48;100.00
51229;BME280;37304;52.216;6.874;2022-11-22T15:16:20;99130.78;;;6.43;100.00
51229;BME280;37304;52.216;6.874;2022-11-22T15:21:25;99116.91;;;6.47;100.00
51229;BME280;37304;52.216;6.874;2022-11-22T15:26:29;99119.50;;;6.47;100.00
51229;BME280;37304;52.216;6.874;2022-11-22T15:31:35;99113.56;;;6.43;100.00
51229;BME280;37304;52.216;6.874;2022-11-22T15:36:41;99109.28;;;6.42;100.00
51229;BME280;37304;52.216;6.874;2022-11-22T15:41:48;99115.31;;;6.43;100.00
51229;BME280;37304;52.216;6.874;2022-11-22T15:46:49;99114.44;;;6.42;100.00
51229;BME280;37304;52.216;6.874;2022-11-22T15:51:57;99120.41;;;6.44;100.00
51229;BME280;37304;52.216;6.874;2022-11-22T15:57:00;99130.00;;;6.40;100.00
51229;BME280;37304;52.216;6.874;2022-11-22T16:02:21;99137.81;;;6.37;100.00
51229;BME280;37304;52.216;6.874;2022-11-22T16:07:39;99134.44;;;6.34;100.00
51229;BME280;37304;52.216;6.874;2022-11-22T16:12:42;99138.72;;;6.35;100.00
51229;BME280;37304;52.216;6.874;2022-11-22T16:17:48;99124.94;;;6.36;100.00
51229;BME280;37304;52.216;6.874;2022-11-22T16:33:27;99146.03;;;6.50;100.00
51229;BME280;37304;52.216;6.874;2022-11-22T16:38:28;99148.50;;;6.55;100.00
51229;BME280;37304;52.216;6.874;2022-11-22T16:43:33;99135.47;;;6.60;100.00
51229;BME280;37304;52.216;6.874;2022-11-22T16:48:33;99141.44;;;6.62;100.00
51229;BME280;37304;52.216;6.874;2022-11-22T16:53:41;99133.78;;;6.59;100.00
51229;BME280;37304;52.216;6.874;2022-11-22T16:58:42;99140.69;;;6.58;100.00
51229;BME280;37304;52.216;6.874;2022-11-22T17:03:43;99141.53;;;6.59;100.00
51229;BME280;37304;52.216;6.874;2022-11-22T17:08:48;99142.31;;;6.61;100.00
51229;BME280;37304;52.216;6.874;2022-11-22T17:13:49;99156.19;;;6.56;100.00
51229;BME280;37304;52.216;6.874;2022-11-22T17:18:50;99147.53;;;6.59;100.00
51229;BME280;37304;52.216;6.874;2022-11-22T17:23:57;99159.47;;;6.63;100.00
51229;BME280;37304;52.216;6.874;2022-11-22T17:28:58;99162.03;;;6.65;100.00
51229;BME280;37304;52.216;6.874;2022-11-22T17:33:58;99157.44;;;6.75;100.00
51229;BME280;37304;52.216;6.874;2022-11-22T17:39:00;99163.47;;;6.75;100.00
51229;BME280;37304;52.216;6.874;2022-11-22T17:44:02;99161.69;;;6.77;100.00
51229;BME280;37304;52.216;6.874;2022-11-22T17:49:03;99160.78;;;6.78;100.00
51229;BME280;37304;52.216;6.874;2022-11-22T17:54:04;99165.81;;;6.83;100.00
51229;BME280;37304;52.216;6.874;2022-11-22T17:59:04;99179.59;;;6.82;100.00
51229;BME280;37304;52.216;6.874;2022-11-22T18:04:05;99183.06;;;6.81;100.00
51229;BME280;37304;52.216;6.874;2022-11-22T18:09:05;99190.72;;;6.84;100.00
51229;BME280;37304;52.216;6.874;2022-11-22T18:14:05;99202.09;;;6.78;100.00
51229;BME280;37304;52.216;6.874;2022-11-22T18:19:06;99206.53;;;6.73;100.00
51229;BME280;37304;52.216;6.874;2022-11-22T18:24:06;99217.03;;;6.67;100.00
51229;BME280;37304;52.216;6.874;2022-11-22T18:29:08;99224.00;;;6.63;100.00
51229;BME280;37304;52.216;6.874;2022-11-22T18:34:08;99226.13;;;6.47;100.00
51229;BME280;37304;52.216;6.874;2022-11-22T18:39:10;99235.13;;;6.32;100.00
51229;BME280;37304;52.216;6.874;2022-11-22T18:44:10;99246.59;;;6.20;100.00
51229;BME280;37304;52.216;6.874;2022-11-22T18:49:11;99251.84;;;6.16;100.00
51229;BME280;37304;52.216;6.874;2022-11-22T18:54:11;99250.16;;;6.15;100.00
51229;BME280;37304;52.216;6.874;2022-11-22T18:59:12;99251.25;;;6.04;100.00
51229;BME280;37304;52.216;6.874;2022-11-22T19:04:16;99260.81;;;6.01;100.00
51229;BME280;37304;52.216;6.874;2022-11-22T19:09:16;99264.28;;;5.98;100.00
51229;BME280;37304;52.216;6.874;2022-11-22T19:14:17;99266.81;;;6.01;100.00
51229;BME280;37304;52.216;6.874;2022-11-22T19:19:19;99274.53;;;6.01;100.00
51229;BME280;37304;52.216;6.874;2022-11-22T19:24:20;99282.28;;;6.01;100.00
51229;BME280;37304;52.216;6.874;2022-11-22T19:29:20;99283.97;;;6.04;100.00
51229;BME280;37304;52.216;6.874;2022-11-22T19:34:21;99279.72;;;6.01;100.00
51229;BME280;37304;52.216;6.874;2022-11-22T19:39:21;99283.91;;;6.05;100.00
51229;BME280;37304;52.216;6.874;2022-11-22T19:44:21;99293.34;;;6.06;100.00
51229;BME280;37304;52.216;6.874;2022-11-22T19:49:22;99289.88;;;6.07;100.00
51229;BME280;37304;52.216;6.874;2022-11-22T19:54:22;99289.00;;;6.08;100.00
51229;BME280;37304;52.216;6.874;2022-11-22T19:59:23;99284.69;;;6.09;100.00
51229;BME280;37304;52.216;6.874;2022-11-22T20:04:23;99292.28;;;6.15;100.00
51229;BME280;37304;52.216;6.874;2022-11-22T20:09:24;99297.38;;;6.18;100.00
51229;BME280;37304;52.216;6.874;2022-11-22T20:14:25;99299.81;;;6.24;100.00
51229;BME280;37304;52.216;6.874;2022-11-22T20:19:25;99291.09;;;6.29;100.00
51229;BME280;37304;52.216;6.874;2022-11-22T20:24:26;99297.00;;;6.34;100.00
51229;BME280;37304;52.216;6.874;2022-11-22T20:29:27;99302.78;;;6.44;100.00
51229;BME280;37304;52.216;6.874;2022-11-22T20:34:27;99304.56;;;6.41;100.00
51229;BME280;37304;52.216;6.874;2022-11-22T20:39:31;99307.97;;;6.44;100.00
51229;BME280;37304;52.216;6.874;2022-11-22T20:44:34;99307.91;;;6.45;100.00
51229;BME280;37304;52.216;6.874;2022-11-22T20:49:34;99309.66;;;6.45;100.00
51229;BME280;37304;52.216;6.874;2022-11-22T20:54:35;99304.41;;;6.48;100.00
51229;BME280;37304;52.216;6.874;2022-11-22T20:59:35;99307.97;;;6.44;100.00
51229;BME280;37304;52.216;6.874;2022-11-22T21:04:35;99304.50;;;6.45;100.00
51229;BME280;37304;52.216;6.874;2022-11-22T21:09:36;99304.50;;;6.45;100.00
51229;BME280;37304;52.216;6.874;2022-11-22T21:14:36;99309.56;;;6.48;100.00
51229;BME280;37304;52.216;6.874;2022-11-22T21:19:37;99313.84;;;6.49;100.00
51229;BME280;37304;52.216;6.874;2022-11-22T21:24:38;99312.09;;;6.51;100.00
51229;BME280;37304;52.216;6.874;2022-11-22T21:29:39;99317.09;;;6.57;100.00
51229;BME280;37304;52.216;6.874;2022-11-22T21:34:39;99324.75;;;6.60;100.00
51229;BME280;37304;52.216;6.874;2022-11-22T21:39:40;99326.44;;;6.63;100.00
51229;BME280;37304;52.216;6.874;2022-11-22T21:44:40;99320.31;;;6.67;100.00
51229;BME280;37304;52.216;6.874;2022-11-22T21:49:40;99324.53;;;6.69;100.00
51229;BME280;37304;52.216;6.874;2022-11-22T21:54:41;99324.53;;;6.69;100.00
51229;BME280;37304;52.216;6.874;2022-11-22T21:59:41;99321.91;;;6.71;100.00
51229;BME280;37304;52.216;6.874;2022-11-22T22:04:41;99331.38;;;6.70;100.00
51229;BME280;37304;52.216;6.874;2022-11-22T22:09:42;99324.53;;;6.69;100.00
51229;BME280;37304;52.216;6.874;2022-11-22T22:14:42;99328.00;;;6.68;100.00
51229;BME280;37304;52.216;6.874;2022-11-22T22:19:42;99335.72;;;6.70;100.00
51229;BME280;37304;52.216;6.874;2022-11-22T22:24:43;99330.56;;;6.68;100.00
51229;BME280;37304;52.216;6.874;2022-11-22T22:29:44;99332.41;;;6.65;100.00
51229;BME280;37304;52.216;6.874;2022-11-22T22:34:44;99335.09;;;6.60;100.00
51229;BME280;37304;52.216;6.874;2022-11-22T22:39:45;99341.94;;;6.61;100.00
51229;BME280;37304;52.216;6.874;2022-11-22T22:44:45;99333.47;;;6.56;100.00
51229;BME280;37304;52.216;6.874;2022-11-22T22:49:46;99342.91;;;6.57;100.00
51229;BME280;37304;52.216;6.874;2022-11-22T22:54:46;99343.78;;;6.56;100.00
51229;BME280;37304;52.216;6.874;2022-11-22T22:59:47;99342.00;;;6.58;100.00
51229;BME280;37304;52.216;6.874;2022-11-22T23:04:47;99341.13;;;6.59;100.00
51229;BME280;37304;52.216;6.874;2022-11-22T23:09:47;99347.88;;;6.65;100.00
51229;BME280;37304;52.216;6.874;2022-11-22T23:14:48;99355.50;;;6.69;100.00
51229;BME280;37304;52.216;6.874;2022-11-22T23:19:48;99351.31;;;6.65;100.00
51229;BME280;37304;52.216;6.874;2022-11-22T23:24:48;99349.53;;;6.67;100.00
51229;BME280;37304;52.216;6.874;2022-11-22T23:29:49;99354.63;;;6.70;100.00
51229;BME280;37304;52.216;6.874;2022-11-22T23:34:49;99360.78;;;6.65;100.00
51229;BME280;37304;52.216;6.874;2022-11-22T23:39:49;99362.50;;;6.64;100.00
51229;BME280;37304;52.216;6.874;2022-11-22T23:44:50;99356.53;;;6.62;100.00
51229;BME280;37304;52.216;6.874;2022-11-22T23:49:51;99364.31;;;6.61;100.00
51229;BME280;37304;52.216;6.874;2022-11-22T23:54:51;99362.66;;;6.58;100.00
51229;BME280;37304;52.216;6.874;2022-11-22T23:59:52;99369.53;;;6.59;100.00
